createdAt,value
2018-06-19T00:02:17.193Z,1.80
2018-06-19T00:04:46.408Z,1.90
2018-06-19T00:07:15.466Z,1.80
2018-06-19T00:09:44.764Z,1.70
2018-06-19T00:12:14.145Z,1.90
2018-06-19T00:14:43.190Z,1.57
2018-06-19T00:17:12.349Z,1.95
2018-06-19T00:19:46.983Z,1.90
2018-06-19T00:22:16.237Z,1.70
2018-06-19T00:24:45.304Z,1.55
2018-06-19T00:27:14.466Z,1.65
2018-06-19T00:29:43.788Z,1.77
2018-06-19T00:32:13.061Z,1.75
2018-06-19T00:34:42.182Z,1.95
2018-06-19T00:37:11.316Z,1.82
2018-06-19T00:39:40.452Z,1.75
2018-06-19T00:42:09.711Z,1.80
2018-06-19T00:44:38.863Z,1.90
2018-06-19T00:47:08.080Z,1.77
2018-06-19T00:49:37.259Z,1.82
2018-06-19T00:52:06.407Z,1.72
2018-06-19T00:54:35.572Z,1.70
2018-06-19T00:57:04.765Z,1.77
2018-06-19T00:59:33.808Z,1.80
2018-06-19T01:02:02.979Z,1.80
2018-06-19T01:04:32.156Z,1.80
2018-06-19T01:07:01.228Z,1.50
2018-06-19T01:09:30.623Z,2.00
2018-06-19T01:11:59.743Z,1.70
2018-06-19T01:14:28.964Z,1.87
2018-06-19T01:16:58.114Z,1.75
2018-06-19T01:19:27.263Z,1.70
2018-06-19T01:21:56.381Z,1.67
2018-06-19T01:24:26.042Z,1.42
2018-06-19T01:26:55.276Z,1.98
2018-06-19T01:29:24.337Z,1.80
2018-06-19T01:31:53.664Z,1.60
2018-06-19T01:34:22.827Z,1.80
2018-06-19T01:36:52.027Z,1.50
2018-06-19T01:39:21.098Z,1.57
2018-06-19T01:41:50.279Z,1.80
2018-06-19T01:44:19.614Z,1.77
2018-06-19T01:46:48.815Z,1.92
2018-06-19T01:49:17.986Z,1.72
2018-06-19T01:51:47.267Z,1.90
2018-06-19T01:54:16.402Z,1.70
2018-06-19T01:56:45.548Z,1.67
2018-06-19T01:59:14.849Z,1.60
2018-06-19T02:01:44.142Z,1.70
2018-06-19T02:04:13.281Z,1.70
2018-06-19T02:06:42.503Z,2.00
2018-06-19T02:09:11.595Z,1.70
2018-06-19T02:11:40.823Z,1.80
2018-06-19T02:14:10.090Z,1.72
2018-06-19T02:16:39.201Z,1.90
2018-06-19T02:19:08.520Z,1.60
2018-06-19T02:21:37.654Z,1.75
2018-06-19T02:24:06.885Z,1.75
2018-06-19T02:26:36.049Z,1.60
2018-06-19T02:29:05.120Z,1.70
2018-06-19T02:31:34.320Z,1.70
2018-06-19T02:34:03.456Z,1.67
2018-06-19T02:36:32.545Z,1.70
2018-06-19T02:39:01.645Z,1.87
2018-06-19T02:41:30.898Z,1.70
2018-06-19T02:44:00.050Z,1.57
2018-06-19T02:46:29.207Z,1.70
2018-06-19T02:48:58.540Z,1.60
2018-06-19T02:51:28.050Z,1.67
2018-06-19T02:53:58.009Z,1.80
2018-06-19T02:56:27.178Z,1.50
2018-06-19T02:58:56.841Z,1.70
2018-06-19T03:01:25.953Z,1.50
2018-06-19T03:03:55.028Z,1.62
2018-06-19T03:06:24.230Z,1.70
2018-06-19T03:08:53.337Z,1.70
2018-06-19T03:11:22.482Z,1.65
2018-06-19T03:13:51.638Z,1.85
2018-06-19T03:16:20.785Z,1.55
2018-06-19T03:18:49.926Z,1.67
2018-06-19T03:21:25.520Z,1.55
2018-06-19T03:23:54.630Z,1.80
2018-06-19T03:26:23.788Z,1.80
2018-06-19T03:28:53.167Z,1.60
2018-06-19T03:31:22.430Z,1.70
2018-06-19T03:33:52.891Z,1.77
2018-06-19T03:36:21.955Z,1.62
2018-06-19T03:38:51.164Z,1.75
2018-06-19T03:41:20.347Z,1.67
2018-06-19T03:43:49.418Z,1.70
2018-06-19T03:46:18.568Z,1.67
2018-06-19T03:48:47.759Z,1.70
2018-06-19T03:51:16.835Z,1.77
2018-06-19T03:53:45.850Z,1.65
2018-06-19T03:56:15.011Z,1.60
2018-06-19T03:58:44.267Z,1.98
2018-06-19T04:01:13.369Z,2.00
2018-06-19T04:03:42.550Z,1.67
2018-06-19T04:06:11.590Z,1.67
2018-06-19T04:08:40.831Z,1.72
2018-06-19T04:11:09.986Z,1.60
2018-06-19T04:13:39.017Z,1.62
2018-06-19T04:16:08.164Z,1.40
2018-06-19T04:18:37.269Z,1.60
2018-06-19T04:21:06.467Z,1.47
2018-06-19T04:23:35.539Z,1.80
2018-06-19T04:26:04.662Z,1.57
2018-06-19T04:28:33.852Z,1.62
2018-06-19T04:31:02.968Z,1.70
2018-06-19T04:33:32.049Z,1.85
2018-06-19T04:36:01.141Z,1.65
2018-06-19T04:38:30.347Z,1.65
2018-06-19T04:40:59.547Z,1.80
2018-06-19T04:43:29.123Z,1.65
2018-06-19T04:45:58.246Z,1.62
2018-06-19T04:48:27.447Z,1.72
2018-06-19T04:50:56.653Z,1.55
2018-06-19T04:53:25.824Z,1.65
2018-06-19T04:55:55.012Z,1.90
2018-06-19T04:58:24.181Z,1.62
2018-06-19T05:00:53.408Z,1.60
2018-06-19T05:03:22.600Z,1.60
2018-06-19T05:05:51.789Z,1.70
2018-06-19T05:08:20.972Z,1.40
2018-06-19T05:10:50.323Z,1.70
2018-06-19T05:13:19.543Z,1.80
2018-06-19T05:15:48.683Z,1.87
2018-06-19T05:18:17.845Z,1.50
2018-06-19T05:20:47.076Z,1.50
2018-06-19T05:23:16.389Z,1.70
2018-06-19T05:25:45.463Z,1.60
2018-06-19T05:28:14.583Z,1.47
2018-06-19T05:30:43.739Z,1.80
2018-06-19T05:33:12.927Z,1.60
2018-06-19T05:35:42.218Z,1.90
2018-06-19T05:38:11.492Z,1.60
2018-06-19T05:40:40.606Z,1.42
2018-06-19T05:43:09.928Z,1.40
2018-06-19T05:45:39.188Z,1.60
2018-06-19T05:48:08.466Z,1.60
2018-06-19T05:50:37.721Z,1.30
2018-06-19T05:53:07.033Z,9.90
2018-06-19T05:55:38.150Z,10.60
2018-06-19T05:58:07.591Z,12.07
2018-06-19T06:00:37.289Z,11.83
2018-06-19T06:03:07.752Z,12.33
2018-06-19T06:05:37.121Z,12.23
2018-06-19T06:08:06.419Z,11.17
2018-06-19T06:10:37.082Z,10.60
2018-06-19T06:13:06.558Z,10.80
2018-06-19T06:15:35.730Z,10.40
2018-06-19T06:18:05.785Z,9.67
2018-06-19T06:20:35.521Z,10.53
2018-06-19T06:23:04.819Z,9.10
2018-06-19T06:25:34.119Z,10.20
2018-06-19T06:28:03.453Z,9.97
2018-06-19T06:30:32.842Z,10.10
2018-06-19T06:33:02.173Z,9.93
2018-06-19T06:35:31.305Z,9.70
2018-06-19T06:38:00.588Z,10.10
2018-06-19T06:40:29.839Z,10.10
2018-06-19T06:42:59.020Z,9.77
2018-06-19T06:45:28.267Z,9.20
2018-06-19T06:47:57.394Z,9.00
2018-06-19T06:50:26.829Z,8.53
2018-06-19T06:52:56.048Z,9.23
2018-06-19T06:55:25.221Z,9.17
2018-06-19T06:57:54.551Z,9.27
2018-06-19T07:00:23.840Z,7.40
2018-06-19T07:02:53.099Z,8.40
2018-06-19T07:05:22.520Z,8.97
2018-06-19T07:07:51.891Z,8.67
2018-06-19T07:10:21.030Z,7.33
2018-06-19T07:12:50.268Z,8.77
2018-06-19T07:15:19.943Z,7.80
2018-06-19T07:17:49.254Z,8.47
2018-06-19T07:20:18.846Z,7.50
2018-06-19T07:22:48.177Z,7.73
2018-06-19T07:25:17.458Z,8.80
2018-06-19T07:27:46.743Z,7.83
2018-06-19T07:30:15.955Z,7.73
2018-06-19T07:32:45.398Z,8.07
2018-06-19T07:35:14.758Z,7.90
2018-06-19T07:37:44.259Z,7.70
2018-06-19T07:40:13.496Z,8.40
2018-06-19T07:42:42.767Z,8.40
2018-06-19T07:45:12.058Z,7.90
2018-06-19T07:47:41.361Z,8.33
2018-06-19T07:50:11.289Z,7.43
2018-06-19T07:52:40.482Z,8.33
2018-06-19T07:55:09.788Z,8.03
2018-06-19T07:57:38.978Z,7.83
2018-06-19T08:00:08.077Z,8.53
2018-06-19T08:02:37.259Z,7.00
2018-06-19T08:05:06.426Z,6.10
2018-06-19T08:07:35.708Z,5.80
2018-06-19T08:10:04.875Z,6.10
2018-06-19T08:12:33.974Z,6.10
2018-06-19T08:15:03.201Z,6.53
2018-06-19T08:17:32.438Z,5.73
2018-06-19T08:20:01.667Z,5.80
2018-06-19T08:22:30.828Z,5.10
2018-06-19T08:25:00.002Z,4.70
2018-06-19T08:27:29.314Z,4.77
2018-06-19T08:29:58.696Z,4.43
2018-06-19T08:32:27.911Z,4.40
2018-06-19T08:34:57.143Z,4.33
2018-06-19T08:37:27.068Z,4.23
2018-06-19T08:39:56.371Z,4.23
2018-06-19T08:42:26.261Z,4.60
2018-06-19T08:44:55.410Z,4.90
2018-06-19T08:47:24.500Z,4.93
2018-06-19T08:49:53.868Z,4.23
2018-06-19T08:52:23.026Z,4.57
2018-06-19T08:54:52.539Z,5.37
2018-06-19T08:57:21.700Z,5.57
2018-06-19T08:59:50.959Z,4.77
2018-06-19T09:02:20.201Z,4.63
2018-06-19T09:04:49.530Z,4.40
2018-06-19T09:07:18.790Z,4.00
2018-06-19T09:09:48.107Z,4.20
2018-06-19T09:12:17.187Z,4.10
2018-06-19T09:14:46.426Z,4.10
2018-06-19T09:17:15.721Z,4.37
2018-06-19T09:19:44.948Z,4.63
2018-06-19T09:22:14.212Z,4.27
2018-06-19T09:24:43.339Z,4.10
2018-06-19T09:27:12.582Z,4.00
2018-06-19T09:29:41.910Z,4.10
2018-06-19T09:32:11.148Z,4.17
2018-06-19T09:34:40.506Z,4.53
2018-06-19T09:37:09.769Z,4.07
2018-06-19T09:39:39.056Z,4.93
2018-06-19T09:42:08.821Z,5.13
2018-06-19T09:44:38.139Z,5.30
2018-06-19T09:47:07.400Z,4.40
2018-06-19T09:49:36.640Z,6.07
2018-06-19T09:52:05.920Z,4.97
2018-06-19T09:54:35.354Z,5.17
2018-06-19T09:57:04.946Z,5.00
2018-06-19T09:59:34.156Z,5.53
2018-06-19T10:02:03.421Z,4.73
2018-06-19T10:04:32.952Z,5.50
2018-06-19T10:07:02.232Z,7.13
2018-06-19T10:09:31.587Z,5.80
2018-06-19T10:12:01.049Z,6.00
2018-06-19T10:14:30.271Z,6.60
2018-06-19T10:16:59.664Z,6.20
2018-06-19T10:19:28.882Z,6.73
2018-06-19T10:21:58.218Z,6.57
2018-06-19T10:24:27.469Z,6.00
2018-06-19T10:26:56.956Z,6.13
2018-06-19T10:29:26.143Z,6.73
2018-06-19T10:31:55.380Z,6.67
2018-06-19T10:34:24.600Z,7.27
2018-06-19T10:36:53.955Z,6.87
2018-06-19T10:39:23.164Z,8.10
2018-06-19T10:41:52.631Z,7.47
2018-06-19T10:44:21.906Z,6.10
2018-06-19T10:46:51.244Z,7.27
2018-06-19T10:49:20.595Z,6.57
2018-06-19T10:51:49.839Z,6.70
2018-06-19T10:54:18.994Z,6.20
2018-06-19T10:56:48.286Z,6.63
2018-06-19T10:59:17.559Z,7.30
2018-06-19T11:01:46.848Z,7.23
2018-06-19T11:04:16.202Z,6.73
2018-06-19T11:06:46.731Z,6.57
2018-06-19T11:09:15.867Z,6.07
2018-06-19T11:11:45.043Z,6.17
2018-06-19T11:14:14.539Z,5.53
2018-06-19T11:16:43.738Z,5.23
2018-06-19T11:19:12.937Z,5.73
2018-06-19T11:21:42.137Z,5.93
2018-06-19T11:24:11.322Z,6.23
2018-06-19T11:26:40.568Z,5.70
2018-06-19T11:29:09.859Z,5.80
2018-06-19T11:31:39.048Z,6.20
2018-06-19T11:34:08.263Z,6.47
2018-06-19T11:36:37.472Z,6.90
2018-06-19T11:39:10.770Z,7.03
2018-06-19T11:41:39.875Z,6.83
2018-06-19T11:44:09.181Z,6.03
2018-06-19T11:46:38.650Z,5.57
2018-06-19T11:49:07.802Z,5.20
2018-06-19T11:51:36.920Z,4.23
2018-06-19T11:54:06.235Z,4.00
2018-06-19T11:56:35.440Z,4.47
2018-06-19T11:59:04.674Z,3.90
2018-06-19T12:01:33.977Z,4.03
2018-06-19T12:04:03.161Z,3.50
2018-06-19T12:06:32.347Z,3.60
2018-06-19T12:09:01.619Z,3.43
2018-06-19T12:11:31.993Z,3.73
2018-06-19T12:14:01.402Z,3.27
2018-06-19T12:16:30.596Z,3.60
2018-06-19T12:18:59.818Z,3.03
2018-06-19T12:21:29.229Z,3.33
2018-06-19T12:23:58.440Z,3.55
2018-06-19T12:26:27.561Z,4.20
2018-06-19T12:28:56.922Z,4.30
2018-06-19T12:31:26.239Z,4.20
2018-06-19T12:33:55.313Z,4.10
2018-06-19T12:36:24.597Z,3.90
2018-06-19T12:38:53.782Z,3.33
2018-06-19T12:41:23.302Z,3.35
2018-06-19T12:43:52.469Z,4.10
2018-06-19T12:46:21.597Z,4.05
2018-06-19T12:48:50.932Z,4.10
2018-06-19T12:51:28.920Z,4.03
2018-06-19T12:54:06.967Z,4.08
2018-06-19T12:56:36.463Z,3.67
2018-06-19T12:59:05.686Z,3.72
2018-06-19T13:01:34.986Z,3.67
2018-06-19T13:04:12.960Z,3.08
2018-06-19T13:06:42.161Z,2.70
2018-06-19T13:09:11.511Z,2.95
2018-06-19T13:11:40.766Z,3.05
2018-06-19T13:14:18.675Z,3.33
2018-06-19T13:16:56.520Z,2.80
2018-06-19T13:19:34.391Z,2.90
2018-06-19T13:22:03.694Z,2.90
2018-06-19T13:24:32.942Z,2.90
2018-06-19T13:27:02.255Z,3.80
2018-06-19T13:29:41.934Z,4.22
2018-06-19T13:32:11.148Z,4.75
2018-06-19T13:34:40.410Z,3.87
2018-06-19T13:37:09.577Z,4.08
2018-06-19T13:39:39.761Z,5.22
2018-06-19T13:42:19.064Z,4.62
2018-06-19T13:44:56.354Z,4.53
2018-06-19T13:47:25.541Z,3.77
2018-06-19T13:49:54.679Z,3.40
2018-06-19T13:52:24.412Z,3.30
2018-06-19T13:54:53.755Z,3.00
2018-06-19T13:57:36.740Z,3.20
2018-06-19T14:00:09.231Z,7.03
2018-06-19T14:02:38.604Z,6.45
2018-06-19T14:05:08.553Z,4.60
2018-06-19T14:07:45.689Z,4.58
2018-06-19T14:10:23.586Z,4.17
2018-06-19T14:12:56.510Z,3.80
2018-06-19T14:15:25.900Z,3.22
2018-06-19T14:18:20.861Z,2.90
2018-06-19T14:20:54.799Z,3.87
2018-06-19T14:23:30.337Z,2.85
2018-06-19T14:26:01.483Z,2.80
2018-06-19T14:28:56.831Z,2.80
2018-06-19T14:32:02.175Z,4.15
2018-06-19T15:05:47.388Z,3.27
2018-06-19T15:08:17.040Z,3.22
2018-06-19T15:10:46.610Z,3.75
2018-06-19T15:13:16.090Z,5.00
2018-06-19T15:15:45.291Z,4.37
2018-06-19T15:18:14.640Z,4.08
2018-06-19T15:20:44.030Z,3.33
2018-06-19T15:23:13.521Z,3.20
2018-06-19T15:25:42.873Z,2.85
2018-06-19T15:28:12.137Z,2.62
2018-06-19T15:30:41.612Z,2.60
2018-06-19T15:33:10.680Z,2.83
2018-06-19T15:35:39.913Z,2.60
2018-06-19T15:38:09.418Z,2.55
2018-06-19T15:40:38.672Z,2.33
2018-06-19T15:43:08.042Z,2.43
2018-06-19T15:45:37.539Z,2.17
2018-06-19T15:48:06.856Z,2.37
2018-06-19T15:50:36.073Z,2.20
2018-06-19T15:53:05.335Z,2.00
2018-06-19T15:55:34.845Z,1.98
2018-06-19T15:58:04.006Z,2.00
2018-06-19T16:00:33.084Z,2.08
2018-06-19T16:03:02.258Z,1.93
2018-06-19T16:05:31.487Z,2.20
2018-06-19T16:08:04.978Z,1.80
2018-06-19T16:10:34.128Z,2.03
2018-06-19T16:13:03.765Z,1.60
2018-06-19T16:15:33.240Z,1.50
2018-06-19T16:18:02.469Z,1.80
2018-06-19T16:20:31.766Z,1.97
2018-06-19T16:23:00.901Z,1.45
2018-06-19T16:25:30.440Z,1.70
2018-06-19T16:27:59.777Z,2.00
2018-06-19T16:30:29.085Z,1.70
2018-06-19T16:32:58.433Z,1.80
2018-06-19T16:35:27.653Z,1.80
2018-06-19T16:37:56.778Z,1.60
2018-06-19T16:40:25.887Z,1.55
2018-06-19T16:42:55.843Z,2.12
2018-06-19T16:45:25.193Z,1.55
2018-06-19T16:47:55.920Z,1.62
2018-06-19T16:50:25.127Z,1.90
2018-06-19T16:52:54.354Z,1.80
2018-06-19T16:55:23.616Z,1.60
2018-06-19T16:57:52.791Z,1.60
2018-06-19T17:00:21.950Z,1.60
2018-06-19T17:02:51.115Z,1.80
2018-06-19T17:05:20.427Z,1.40
2018-06-19T17:07:49.625Z,1.90
2018-06-19T17:10:19.784Z,1.62
2018-06-19T17:12:49.077Z,1.40
2018-06-19T17:15:18.301Z,1.80
2018-06-19T17:17:47.604Z,1.87
2018-06-19T17:20:16.812Z,1.50
2018-06-19T17:22:45.991Z,1.70
2018-06-19T17:25:15.078Z,1.60
2018-06-19T17:27:44.222Z,1.60
2018-06-19T17:30:13.531Z,1.70
2018-06-19T17:32:42.783Z,1.60
2018-06-19T17:35:11.855Z,1.50
2018-06-19T17:37:40.997Z,1.70
2018-06-19T17:40:10.078Z,1.80
2018-06-19T17:42:39.218Z,1.70
2018-06-19T17:45:08.369Z,1.60
2018-06-19T17:47:37.525Z,1.70
2018-06-19T17:50:06.751Z,1.72
2018-06-19T17:52:35.945Z,1.85
2018-06-19T17:55:05.173Z,1.40
2018-06-19T17:57:34.368Z,1.82
2018-06-19T18:00:03.513Z,1.60
2018-06-19T18:02:33.046Z,1.55
2018-06-19T18:05:02.277Z,1.50
2018-06-19T18:07:31.543Z,1.70
2018-06-19T18:10:00.767Z,1.60
2018-06-19T18:12:30.039Z,1.67
2018-06-19T18:14:59.269Z,1.57
2018-06-19T18:17:28.499Z,1.57
2018-06-19T18:19:57.663Z,1.50
2018-06-19T18:22:26.823Z,1.80
2018-06-19T18:24:55.922Z,1.72
2018-06-19T18:27:25.158Z,1.55
2018-06-19T18:29:54.246Z,1.62
2018-06-19T18:32:24.760Z,1.70
2018-06-19T18:34:53.889Z,1.70
2018-06-19T18:37:23.054Z,1.50
2018-06-19T18:39:52.307Z,1.77
2018-06-19T18:42:21.558Z,1.37
2018-06-19T18:44:50.757Z,1.75
2018-06-19T18:47:19.862Z,1.50
2018-06-19T18:49:49.080Z,1.67
2018-06-19T18:52:18.207Z,1.70
2018-06-19T18:54:47.802Z,1.37
2018-06-19T18:57:17.174Z,1.40
2018-06-19T18:59:46.414Z,1.70
2018-06-19T19:02:15.760Z,1.72
2018-06-19T19:04:44.930Z,1.70
2018-06-19T19:07:14.187Z,1.62
2018-06-19T19:09:47.613Z,1.60
2018-06-19T19:12:16.727Z,1.70
2018-06-19T19:14:49.956Z,1.57
2018-06-19T19:17:23.686Z,1.40
2018-06-19T19:19:53.213Z,1.72
2018-06-19T19:22:22.321Z,1.75
2018-06-19T19:24:51.517Z,1.62
2018-06-19T19:27:24.973Z,1.70
2018-06-19T19:29:54.129Z,1.70
2018-06-19T19:32:23.263Z,1.45
2018-06-19T19:34:52.657Z,1.60
2018-06-19T19:37:26.659Z,1.45
2018-06-19T19:39:56.073Z,1.47
2018-06-19T19:42:25.243Z,1.77
2018-06-19T19:44:54.365Z,1.27
2018-06-19T19:47:27.617Z,1.60
2018-06-19T19:49:57.079Z,1.47
2018-06-19T19:52:26.111Z,1.20
2018-06-19T19:54:55.149Z,1.47
2018-06-19T19:57:28.316Z,1.30
2018-06-19T19:59:57.740Z,1.47
2018-06-19T20:02:26.935Z,1.42
2018-06-19T20:04:56.120Z,1.30
2018-06-19T20:07:25.345Z,1.52
2018-06-19T20:09:54.717Z,1.52
2018-06-19T20:12:23.809Z,1.40
2018-06-19T20:14:53.168Z,1.42
2018-06-19T20:17:22.224Z,1.57
2018-06-19T20:19:51.298Z,1.25
2018-06-19T20:22:20.390Z,1.50
2018-06-19T20:24:50.729Z,1.60
2018-06-19T20:27:19.915Z,1.50
2018-06-19T20:29:49.280Z,1.37
2018-06-19T20:32:18.638Z,1.60
2018-06-19T20:34:47.844Z,1.40
2018-06-19T20:37:16.961Z,1.30
2018-06-19T20:39:47.106Z,1.40
2018-06-19T20:42:16.350Z,1.40
2018-06-19T20:44:45.614Z,1.25
2018-06-19T20:47:14.817Z,1.50
2018-06-19T20:49:43.853Z,1.60
2018-06-19T20:52:12.824Z,1.80
2018-06-19T20:54:42.085Z,1.32
2018-06-19T20:57:11.228Z,1.70
2018-06-19T20:59:40.347Z,1.50
2018-06-19T21:02:10.543Z,1.30
2018-06-19T21:04:39.862Z,1.70
2018-06-19T21:07:09.172Z,1.35
2018-06-19T21:09:39.256Z,1.40
2018-06-19T21:12:09.121Z,1.52
2018-06-19T21:14:38.315Z,1.60
2018-06-19T21:17:07.598Z,1.40
2018-06-19T21:19:36.912Z,1.20
2018-06-19T21:22:06.116Z,1.20
2018-06-19T21:24:35.274Z,1.40
2018-06-19T21:27:04.570Z,1.60
2018-06-19T21:29:33.871Z,1.50
2018-06-19T21:32:03.089Z,1.30
2018-06-19T21:34:32.287Z,1.50
2018-06-19T21:37:01.475Z,1.30
2018-06-19T21:39:30.668Z,1.40
2018-06-19T21:42:00.077Z,1.15
2018-06-19T21:44:29.057Z,1.50
2018-06-19T21:46:58.338Z,1.22
2018-06-19T21:49:27.563Z,1.60
2018-06-19T21:51:56.974Z,1.32
2018-06-19T21:54:26.160Z,1.25
2018-06-19T21:56:55.418Z,1.60
2018-06-19T21:59:24.579Z,1.50
2018-06-19T22:01:53.801Z,1.50
2018-06-19T22:04:22.957Z,1.50
2018-06-19T22:06:52.183Z,1.20
2018-06-19T22:09:21.333Z,1.30
2018-06-19T22:11:50.575Z,1.30
2018-06-19T22:14:19.702Z,1.42
2018-06-19T22:16:49.077Z,1.10
2018-06-19T22:19:18.229Z,1.60
2018-06-19T22:21:47.457Z,1.30
2018-06-19T22:24:16.708Z,1.40
2018-06-19T22:26:45.976Z,1.22
2018-06-19T22:29:16.020Z,1.40
2018-06-19T22:31:45.106Z,1.45
2018-06-19T22:34:14.319Z,1.27
2018-06-19T22:36:43.621Z,1.40
2018-06-19T22:39:12.619Z,1.37
2018-06-19T22:41:41.706Z,1.65
2018-06-19T22:44:10.923Z,1.40
2018-06-19T22:46:40.216Z,1.40
2018-06-19T22:49:09.487Z,1.40
2018-06-19T22:51:38.569Z,1.30
2018-06-19T22:54:07.613Z,1.30
2018-06-19T22:56:36.741Z,1.60
2018-06-19T22:59:05.776Z,1.37
2018-06-19T23:01:35.081Z,1.40
2018-06-19T23:04:04.354Z,1.40
2018-06-19T23:06:33.451Z,1.20
2018-06-19T23:09:02.621Z,1.30
2018-06-19T23:11:31.814Z,1.40
2018-06-19T23:14:02.194Z,1.30
2018-06-19T23:16:31.303Z,1.12
2018-06-19T23:19:00.352Z,1.40
2018-06-19T23:21:29.573Z,1.30
2018-06-19T23:23:58.724Z,1.27
2018-06-19T23:26:27.783Z,1.12
2018-06-19T23:28:56.996Z,1.30
2018-06-19T23:31:26.303Z,1.30
2018-06-19T23:33:55.791Z,1.30
2018-06-19T23:36:24.909Z,1.30
2018-06-19T23:38:54.035Z,1.50
2018-06-19T23:41:23.166Z,1.20
2018-06-19T23:43:52.545Z,1.25
2018-06-19T23:46:21.708Z,1.42
2018-06-19T23:48:51.273Z,1.27
2018-06-19T23:51:20.477Z,1.22
2018-06-19T23:53:49.614Z,1.07
2018-06-19T23:56:18.855Z,1.27
2018-06-19T23:58:47.974Z,1.20
